createdAt,value
2019-01-11T00:00:23.020Z,7.70
2019-01-11T00:02:54.295Z,8.90
2019-01-11T00:05:25.532Z,8.23
2019-01-11T00:07:56.818Z,10.80
2019-01-11T00:10:28.043Z,9.70
2019-01-11T00:12:59.407Z,9.63
2019-01-11T00:15:31.349Z,10.77
2019-01-11T00:18:02.633Z,10.63
2019-01-11T00:20:33.926Z,8.93
2019-01-11T00:23:05.938Z,10.13
2019-01-11T00:25:37.127Z,10.70
2019-01-11T00:28:08.459Z,12.43
2019-01-11T00:30:39.712Z,12.67
2019-01-11T00:33:10.820Z,12.10
2019-01-11T00:35:42.101Z,11.77
2019-01-11T00:38:13.332Z,10.57
2019-01-11T00:40:44.614Z,13.30
2019-01-11T00:43:15.823Z,10.13
2019-01-11T00:45:47.102Z,10.70
2019-01-11T00:48:18.370Z,11.50
2019-01-11T00:50:49.633Z,10.33
2019-01-11T00:53:22.424Z,11.57
2019-01-11T00:55:55.587Z,11.90
2019-01-11T00:58:29.220Z,12.53
2019-01-11T01:01:02.628Z,11.97
2019-01-11T01:03:35.882Z,11.70
2019-01-11T01:06:09.287Z,11.30
2019-01-11T01:08:42.662Z,9.80
2019-01-11T01:11:14.395Z,10.87
2019-01-11T01:13:45.740Z,10.33
2019-01-11T01:16:17.052Z,10.93
2019-01-11T01:18:48.296Z,10.67
2019-01-11T01:21:19.606Z,10.80
2019-01-11T01:23:50.928Z,10.03
2019-01-11T01:26:22.300Z,10.30
2019-01-11T01:28:53.609Z,9.87
2019-01-11T01:31:24.859Z,10.63
2019-01-11T01:33:56.142Z,10.37
2019-01-11T01:36:27.454Z,10.77
2019-01-11T01:38:58.872Z,11.03
2019-01-11T01:41:30.106Z,12.80
2019-01-11T01:44:01.359Z,12.10
2019-01-11T01:46:32.735Z,10.03
2019-01-11T01:49:04.022Z,11.47
2019-01-11T01:51:35.267Z,11.93
2019-01-11T01:54:07.175Z,13.50
2019-01-11T01:56:38.471Z,14.40
2019-01-11T01:59:09.784Z,13.17
2019-01-11T02:01:41.079Z,12.43
2019-01-11T02:04:12.393Z,13.20
2019-01-11T02:06:43.685Z,13.37
2019-01-11T02:09:14.915Z,11.97
2019-01-11T02:11:46.972Z,11.17
2019-01-11T02:14:18.225Z,12.47
2019-01-11T02:16:49.506Z,11.83
2019-01-11T02:19:20.806Z,12.73
2019-01-11T02:21:52.806Z,13.03
2019-01-11T02:24:24.035Z,11.27
2019-01-11T02:26:55.298Z,13.17
2019-01-11T02:29:26.472Z,13.63
2019-01-11T02:31:57.760Z,14.80
2019-01-11T02:34:29.015Z,14.47
2019-01-11T02:37:00.259Z,14.20
2019-01-11T02:39:31.525Z,14.23
2019-01-11T02:42:02.795Z,15.57
2019-01-11T02:44:34.063Z,16.17
2019-01-11T02:47:05.462Z,14.97
2019-01-11T02:49:40.220Z,14.93
2019-01-11T02:52:09.551Z,17.47
2019-01-11T02:54:40.879Z,18.60
2019-01-11T02:57:12.131Z,18.00
2019-01-11T02:59:43.397Z,19.03
2019-01-11T03:02:14.641Z,16.83
2019-01-11T03:04:45.913Z,16.40
2019-01-11T03:07:17.147Z,16.33
2019-01-11T03:09:48.419Z,15.80
2019-01-11T03:12:19.651Z,17.10
2019-01-11T03:14:50.839Z,14.43
2019-01-11T03:17:22.018Z,15.97
2019-01-11T03:19:53.303Z,14.20
2019-01-11T03:22:24.649Z,14.23
2019-01-11T03:24:55.920Z,15.50
2019-01-11T03:27:27.229Z,13.80
2019-01-11T03:29:58.469Z,13.70
2019-01-11T03:32:29.744Z,15.70
2019-01-11T03:35:25.828Z,14.70
2019-01-11T03:37:57.123Z,13.73
2019-01-11T03:40:28.508Z,15.40
2019-01-11T03:42:59.893Z,13.90
2019-01-11T03:45:31.172Z,15.10
2019-01-11T03:48:02.424Z,13.47
2019-01-11T03:50:33.680Z,16.40
2019-01-11T03:53:05.094Z,13.60
2019-01-11T03:55:36.346Z,13.73
2019-01-11T03:58:07.670Z,14.50
2019-01-11T04:00:38.953Z,13.57
2019-01-11T04:03:10.178Z,15.27
2019-01-11T04:05:41.392Z,14.17
2019-01-11T04:08:12.585Z,14.60
2019-01-11T04:10:43.815Z,15.97
2019-01-11T04:13:15.761Z,16.50
2019-01-11T04:15:47.032Z,14.47
2019-01-11T04:18:35.556Z,16.27
2019-01-11T04:21:06.901Z,14.97
2019-01-11T04:23:38.178Z,15.57
2019-01-11T04:26:09.425Z,14.33
2019-01-11T04:28:40.712Z,14.00
2019-01-11T04:31:11.945Z,15.60
2019-01-11T04:33:43.184Z,16.17
2019-01-11T04:36:14.495Z,17.57
2019-01-11T04:38:45.792Z,14.47
2019-01-11T04:41:17.350Z,15.70
2019-01-11T04:43:48.607Z,16.00
2019-01-11T04:46:19.897Z,14.63
2019-01-11T04:48:51.178Z,16.83
2019-01-11T04:51:22.459Z,16.27
2019-01-11T04:53:53.731Z,16.40
2019-01-11T04:56:25.018Z,17.80
2019-01-11T04:58:56.246Z,15.90
2019-01-11T05:01:27.527Z,15.90
2019-01-11T05:03:58.832Z,16.30
2019-01-11T05:06:30.072Z,18.57
2019-01-11T05:09:01.361Z,18.30
2019-01-11T05:11:32.824Z,16.70
2019-01-11T05:14:04.120Z,18.60
2019-01-11T05:16:39.417Z,19.43
2019-01-11T05:19:08.293Z,17.53
2019-01-11T05:21:39.446Z,20.17
2019-01-11T05:24:10.726Z,18.67
2019-01-11T05:26:41.999Z,20.07
2019-01-11T05:29:13.241Z,20.07
2019-01-11T05:31:44.531Z,21.07
2019-01-11T05:34:15.752Z,19.93
2019-01-11T05:36:47.086Z,19.93
2019-01-11T05:39:18.352Z,19.37
2019-01-11T05:41:49.630Z,20.90
2019-01-11T05:44:20.788Z,18.63
2019-01-11T05:46:52.224Z,22.60
2019-01-11T05:49:23.461Z,20.40
2019-01-11T05:51:54.656Z,20.50
2019-01-11T05:54:25.902Z,20.90
2019-01-11T05:56:57.231Z,20.27
2019-01-11T05:59:28.504Z,22.93
2019-01-11T06:01:59.823Z,21.23
2019-01-11T06:04:49.804Z,21.83
2019-01-11T06:07:42.733Z,21.97
2019-01-11T06:10:16.681Z,20.07
2019-01-11T06:12:47.910Z,21.27
2019-01-11T06:15:19.189Z,23.67
2019-01-11T06:17:50.418Z,22.87
2019-01-11T06:20:21.987Z,21.93
2019-01-11T06:22:53.219Z,22.43
2019-01-11T06:25:24.431Z,24.20
2019-01-11T06:27:55.663Z,22.47
2019-01-11T06:30:26.871Z,23.73
2019-01-11T06:32:58.091Z,22.93
2019-01-11T06:35:29.405Z,25.67
2019-01-11T06:38:00.712Z,23.20
2019-01-11T06:40:31.972Z,24.17
2019-01-11T06:43:03.669Z,25.07
2019-01-11T06:45:35.072Z,25.20
2019-01-11T06:48:12.296Z,23.90
2019-01-11T06:50:43.574Z,23.20
2019-01-11T06:53:14.818Z,25.80
2019-01-11T06:55:45.960Z,24.97
2019-01-11T06:58:17.255Z,22.77
2019-01-11T07:00:48.519Z,21.30
2019-01-11T07:03:19.849Z,23.93
2019-01-11T07:05:51.100Z,22.50
2019-01-11T07:08:22.638Z,26.90
2019-01-11T07:10:53.942Z,22.97
2019-01-11T07:13:25.197Z,24.60
2019-01-11T07:15:56.504Z,23.03
2019-01-11T07:18:27.756Z,25.93
2019-01-11T07:20:59.029Z,24.87
2019-01-11T07:23:30.316Z,26.97
2019-01-11T07:26:01.616Z,25.13
2019-01-11T07:28:32.762Z,26.50
2019-01-11T07:31:07.380Z,25.73
2019-01-11T07:33:38.700Z,26.17
2019-01-11T07:36:28.808Z,21.07
2019-01-11T07:39:00.243Z,21.27
2019-01-11T07:41:31.522Z,23.60
2019-01-11T07:44:02.810Z,21.20
2019-01-11T07:46:39.834Z,21.50
2019-01-11T07:49:11.155Z,22.50
2019-01-11T07:51:42.523Z,24.40
2019-01-11T07:54:13.819Z,24.73
2019-01-11T07:56:44.960Z,23.57
2019-01-11T07:59:16.439Z,23.47
2019-01-11T08:01:47.666Z,21.20
2019-01-11T08:04:18.850Z,23.13
2019-01-11T08:06:50.161Z,21.63
2019-01-11T08:09:21.294Z,23.93
2019-01-11T08:11:52.574Z,21.40
2019-01-11T08:14:23.803Z,20.93
2019-01-11T08:16:55.073Z,22.37
2019-01-11T08:19:26.212Z,22.87
2019-01-11T08:21:57.500Z,20.40
2019-01-11T08:24:28.692Z,23.20
2019-01-11T08:26:59.985Z,20.93
2019-01-11T08:29:31.217Z,20.50
2019-01-11T08:32:02.508Z,21.10
2019-01-11T08:34:33.765Z,20.20
2019-01-11T08:37:05.418Z,19.10
2019-01-11T08:39:36.684Z,19.60
2019-01-11T08:42:07.888Z,20.73
2019-01-11T08:44:39.204Z,19.03
2019-01-11T08:47:10.451Z,20.83
2019-01-11T08:49:41.732Z,20.67
2019-01-11T08:52:12.982Z,21.80
2019-01-11T08:54:44.308Z,21.07
2019-01-11T08:57:15.499Z,24.73
2019-01-11T08:59:46.794Z,24.43
2019-01-11T09:02:18.048Z,19.90
2019-01-11T09:04:49.319Z,25.30
2019-01-11T09:07:20.602Z,24.37
2019-01-11T09:09:51.881Z,26.47
2019-01-11T09:12:23.070Z,25.27
2019-01-11T09:14:54.802Z,28.13
2019-01-11T09:17:25.953Z,23.27
2019-01-11T09:19:57.239Z,25.40
2019-01-11T09:22:28.423Z,25.27
2019-01-11T09:24:59.697Z,30.20
2019-01-11T09:27:30.977Z,25.73
2019-01-11T09:30:02.061Z,26.30
2019-01-11T09:32:33.245Z,26.60
2019-01-11T09:35:05.141Z,27.20
2019-01-11T09:37:36.468Z,30.17
2019-01-11T09:40:08.255Z,29.83
2019-01-11T09:42:39.518Z,30.80
2019-01-11T09:45:11.149Z,32.63
2019-01-11T09:47:42.448Z,28.00
2019-01-11T09:50:13.650Z,26.43
2019-01-11T09:52:44.880Z,26.80
2019-01-11T09:55:16.684Z,25.03
2019-01-11T09:57:47.984Z,26.73
2019-01-11T10:00:26.830Z,25.70
2019-01-11T10:03:04.205Z,25.13
2019-01-11T10:05:35.442Z,28.60
2019-01-11T10:08:06.769Z,25.50
2019-01-11T10:10:38.015Z,27.47
2019-01-11T10:13:09.208Z,27.40
2019-01-11T10:15:40.745Z,27.87
2019-01-11T10:18:11.985Z,29.57
2019-01-11T10:20:43.250Z,26.93
2019-01-11T10:23:14.740Z,26.63
2019-01-11T10:25:45.994Z,25.67
2019-01-11T10:28:17.226Z,24.40
2019-01-11T10:30:48.475Z,31.17
2019-01-11T10:33:19.781Z,27.13
2019-01-11T10:35:51.023Z,26.00
2019-01-11T10:38:22.171Z,25.60
2019-01-11T10:40:53.391Z,28.80
2019-01-11T10:43:24.568Z,25.90
2019-01-11T10:45:55.813Z,26.30
2019-01-11T10:48:27.112Z,27.13
2019-01-11T10:50:58.399Z,28.23
2019-01-11T10:53:29.647Z,28.03
2019-01-11T10:56:00.899Z,24.20
2019-01-11T10:58:32.190Z,24.90
2019-01-11T11:01:03.441Z,28.13
2019-01-11T11:03:34.710Z,25.33
2019-01-11T11:06:06.073Z,25.60
2019-01-11T11:08:37.410Z,28.30
2019-01-11T11:11:08.675Z,28.40
2019-01-11T11:13:39.999Z,27.77
2019-01-11T11:16:11.232Z,29.90
2019-01-11T11:18:42.543Z,27.80
2019-01-11T11:21:13.769Z,27.60
2019-01-11T11:23:45.092Z,31.20
2019-01-11T11:26:16.432Z,29.10
2019-01-11T11:28:47.745Z,26.20
2019-01-11T11:31:19.033Z,33.00
2019-01-11T11:33:50.272Z,33.60
2019-01-11T11:36:21.471Z,32.17
2019-01-11T11:38:52.685Z,28.33
2019-01-11T11:41:24.073Z,28.63
2019-01-11T11:43:55.230Z,26.67
2019-01-11T11:46:26.477Z,27.53
2019-01-11T11:48:57.803Z,26.73
2019-01-11T11:51:29.155Z,27.60
2019-01-11T11:54:00.469Z,28.33
2019-01-11T11:56:31.697Z,23.43
2019-01-11T11:59:02.892Z,22.63
2019-01-11T12:01:34.178Z,25.47
2019-01-11T12:04:07.116Z,26.47
2019-01-11T12:06:38.549Z,26.70
2019-01-11T12:09:12.084Z,25.57
2019-01-11T12:11:43.325Z,22.50
2019-01-11T12:14:14.600Z,22.53
2019-01-11T12:16:45.854Z,20.60
2019-01-11T12:19:17.153Z,21.50
2019-01-11T12:21:48.504Z,21.17
2019-01-11T12:24:19.784Z,22.03
2019-01-11T12:26:51.057Z,22.27
2019-01-11T12:29:22.409Z,20.80
2019-01-11T12:31:53.728Z,16.00
2019-01-11T12:34:25.006Z,20.77
2019-01-11T12:36:56.233Z,18.97
2019-01-11T12:39:27.374Z,19.17
2019-01-11T12:41:58.667Z,18.40
2019-01-11T12:44:29.918Z,16.40
2019-01-11T12:47:01.209Z,17.93
2019-01-11T12:49:32.493Z,17.03
2019-01-11T12:52:03.795Z,16.60
2019-01-11T12:54:35.076Z,16.07
2019-01-11T12:57:06.494Z,16.20
2019-01-11T12:59:37.697Z,15.10
2019-01-11T13:02:08.985Z,15.03
2019-01-11T13:04:40.486Z,14.10
2019-01-11T13:07:11.749Z,14.40
2019-01-11T13:09:43.030Z,13.13
2019-01-11T13:12:14.195Z,12.17
2019-01-11T13:14:45.549Z,11.67
2019-01-11T13:17:16.791Z,11.67
2019-01-11T13:19:48.061Z,13.90
2019-01-11T13:22:19.315Z,11.37
2019-01-11T13:24:50.580Z,9.33
2019-01-11T13:27:21.820Z,8.20
2019-01-11T13:29:52.989Z,8.63
2019-01-11T13:32:24.298Z,8.10
2019-01-11T13:34:55.568Z,8.50
2019-01-11T13:37:26.854Z,7.53
2019-01-11T13:39:58.092Z,7.30
2019-01-11T13:42:29.399Z,7.47
2019-01-11T13:45:00.738Z,6.47
2019-01-11T13:47:33.205Z,7.87
2019-01-11T13:50:06.209Z,7.47
2019-01-11T13:52:37.601Z,7.27
2019-01-11T13:55:08.829Z,6.50
2019-01-11T13:57:40.113Z,6.67
2019-01-11T14:00:14.687Z,6.80
2019-01-11T14:02:46.021Z,5.30
2019-01-11T14:05:17.337Z,7.13
2019-01-11T14:07:48.579Z,7.67
2019-01-11T14:10:19.846Z,5.90
2019-01-11T14:12:51.089Z,6.47
2019-01-11T14:15:22.330Z,6.97
2019-01-11T14:17:53.642Z,6.57
2019-01-11T14:20:24.910Z,6.17
2019-01-11T14:22:56.175Z,6.77
2019-01-11T14:25:27.465Z,6.83
2019-01-11T14:27:58.742Z,6.10
2019-01-11T14:30:30.020Z,6.33
2019-01-11T14:33:01.445Z,5.97
2019-01-11T14:35:32.663Z,5.50
2019-01-11T14:38:03.966Z,5.50
2019-01-11T14:40:35.354Z,4.37
2019-01-11T14:43:06.647Z,6.03
2019-01-11T14:45:39.248Z,6.50
2019-01-11T14:48:10.790Z,7.17
2019-01-11T14:50:41.945Z,5.10
2019-01-11T14:53:13.283Z,4.97
2019-01-11T14:55:44.443Z,5.50
2019-01-11T14:58:15.710Z,4.87
2019-01-11T15:00:46.952Z,4.53
2019-01-11T15:03:18.252Z,5.03
2019-01-11T15:05:49.565Z,6.33
2019-01-11T15:08:20.901Z,6.67
2019-01-11T15:10:52.145Z,6.47
2019-01-11T15:13:23.486Z,5.70
2019-01-11T15:15:54.771Z,5.37
2019-01-11T15:18:26.171Z,6.10
2019-01-11T15:20:57.429Z,5.33
2019-01-11T15:23:28.768Z,4.70
2019-01-11T15:26:00.069Z,3.87
2019-01-11T15:28:31.376Z,6.23
2019-01-11T15:31:02.673Z,4.43
2019-01-11T15:33:33.980Z,3.47
2019-01-11T15:36:05.410Z,4.23
2019-01-11T15:38:36.772Z,4.20
2019-01-11T15:41:08.087Z,3.90
2019-01-11T15:43:39.403Z,4.03
2019-01-11T15:46:15.065Z,4.80
2019-01-11T15:48:49.913Z,4.53
2019-01-11T15:51:25.258Z,3.40
2019-01-11T15:53:57.240Z,4.60
2019-01-11T15:56:28.844Z,4.37
2019-01-11T15:59:00.613Z,4.33
2019-01-11T16:01:32.067Z,4.73
2019-01-11T16:04:09.102Z,4.40
2019-01-11T16:06:42.806Z,2.93
2019-01-11T16:10:13.222Z,4.40
2019-01-11T16:13:07.814Z,4.73
2019-01-11T16:16:33.863Z,4.10
2019-01-11T16:19:05.241Z,4.37
2019-01-11T16:21:36.464Z,4.40
2019-01-11T16:24:08.301Z,4.70
2019-01-11T16:26:39.575Z,4.80
2019-01-11T16:29:10.791Z,4.50
2019-01-11T16:31:42.047Z,4.80
2019-01-11T16:34:13.349Z,5.00
2019-01-11T16:36:44.503Z,4.40
2019-01-11T16:39:15.863Z,4.03
2019-01-11T16:41:47.107Z,4.10
2019-01-11T16:44:18.436Z,4.07
2019-01-11T16:46:49.685Z,3.83
2019-01-11T16:49:20.869Z,3.63
2019-01-11T16:51:52.109Z,4.30
2019-01-11T16:54:23.292Z,4.77
2019-01-11T16:56:54.520Z,4.93
2019-01-11T16:59:25.876Z,3.77
2019-01-11T17:01:57.137Z,3.97
2019-01-11T17:04:28.380Z,4.40
2019-01-11T17:06:59.704Z,4.10
2019-01-11T17:09:30.980Z,3.90
2019-01-11T17:12:02.225Z,4.20
2019-01-11T17:14:33.441Z,4.70
2019-01-11T17:17:04.956Z,4.40
2019-01-11T17:19:36.297Z,4.17
2019-01-11T17:22:07.557Z,4.70
2019-01-11T17:24:38.791Z,3.73
2019-01-11T17:27:10.054Z,4.30
2019-01-11T17:29:46.951Z,4.50
2019-01-11T17:32:14.199Z,4.20
2019-01-11T17:34:45.403Z,4.60
2019-01-11T17:37:16.539Z,5.30
2019-01-11T17:39:47.837Z,5.40
2019-01-11T17:42:19.080Z,4.33
2019-01-11T17:44:50.421Z,5.90
2019-01-11T17:47:21.648Z,4.83
2019-01-11T17:49:52.936Z,5.40
2019-01-11T17:52:24.109Z,5.40
2019-01-11T17:54:55.446Z,5.40
2019-01-11T17:57:26.671Z,5.87
2019-01-11T17:59:57.965Z,4.80
2019-01-11T18:02:29.214Z,4.73
2019-01-11T18:05:00.591Z,5.40
2019-01-11T18:07:31.803Z,5.07
2019-01-11T18:10:03.222Z,5.07
2019-01-11T18:12:34.385Z,5.93
2019-01-11T18:15:08.347Z,5.50
2019-01-11T18:17:39.530Z,4.40
2019-01-11T18:20:18.833Z,4.80
2019-01-11T18:22:50.075Z,4.80
2019-01-11T18:25:21.337Z,5.00
2019-01-11T18:27:52.591Z,4.87
2019-01-11T18:30:24.055Z,4.53
2019-01-11T18:32:55.287Z,4.07
2019-01-11T18:35:26.530Z,4.13
2019-01-11T18:37:57.788Z,4.43
2019-01-11T18:40:29.406Z,4.73
2019-01-11T18:43:02.040Z,4.70
2019-01-11T18:45:33.429Z,4.33
2019-01-11T18:48:04.890Z,3.80
2019-01-11T18:50:36.078Z,4.63
2019-01-11T18:53:13.492Z,4.20
2019-01-11T18:55:43.196Z,4.67
2019-01-11T18:58:14.404Z,4.53
2019-01-11T19:00:45.723Z,4.40
2019-01-11T19:03:16.963Z,4.60
2019-01-11T19:05:48.729Z,5.30
2019-01-11T19:08:20.102Z,4.10
2019-01-11T19:10:51.308Z,4.10
2019-01-11T19:13:22.597Z,3.97
2019-01-11T19:15:53.844Z,4.80
2019-01-11T19:18:24.964Z,5.43
2019-01-11T19:20:56.223Z,5.30
2019-01-11T19:23:27.471Z,5.10
2019-01-11T19:25:58.722Z,6.13
2019-01-11T19:28:29.989Z,5.77
2019-01-11T19:31:01.332Z,5.80
2019-01-11T19:33:32.600Z,6.43
2019-01-11T19:36:03.908Z,6.03
2019-01-11T19:38:35.298Z,5.47
2019-01-11T19:41:06.931Z,5.37
2019-01-11T19:43:38.124Z,4.83
2019-01-11T19:46:09.434Z,7.10
2019-01-11T19:48:40.706Z,6.13
2019-01-11T19:51:11.962Z,4.97
2019-01-11T19:53:43.316Z,4.97
2019-01-11T19:56:14.476Z,6.20
2019-01-11T19:58:45.806Z,6.13
2019-01-11T20:01:17.232Z,6.53
2019-01-11T20:03:48.448Z,6.93
2019-01-11T20:06:19.680Z,6.20
2019-01-11T20:08:50.946Z,6.10
2019-01-11T20:11:22.187Z,5.40
2019-01-11T20:13:53.444Z,5.43
2019-01-11T20:16:24.702Z,5.60
2019-01-11T20:18:57.236Z,4.70
2019-01-11T20:21:28.577Z,6.10
2019-01-11T20:23:59.840Z,5.63
2019-01-11T20:26:31.085Z,5.40
2019-01-11T20:29:02.362Z,5.33
2019-01-11T20:31:33.542Z,6.77
2019-01-11T20:34:04.919Z,4.90
2019-01-11T20:36:47.563Z,5.10
2019-01-11T20:39:18.811Z,5.63
2019-01-11T20:41:50.041Z,5.60
2019-01-11T20:44:21.323Z,4.50
2019-01-11T20:46:52.591Z,4.60
2019-01-11T20:49:23.841Z,5.47
2019-01-11T20:51:55.060Z,5.20
2019-01-11T20:54:26.325Z,5.40
2019-01-11T20:56:57.525Z,4.00
2019-01-11T20:59:28.864Z,4.83
2019-01-11T21:02:00.051Z,5.03
2019-01-11T21:04:31.407Z,4.27
2019-01-11T21:07:02.627Z,4.37
2019-01-11T21:09:33.828Z,4.20
2019-01-11T21:12:05.091Z,5.00
2019-01-11T21:14:36.356Z,4.87
2019-01-11T21:17:07.761Z,4.63
2019-01-11T21:19:39.025Z,4.40
2019-01-11T21:22:10.312Z,4.40
2019-01-11T21:24:41.565Z,3.37
2019-01-11T21:27:12.745Z,3.80
2019-01-11T21:29:43.999Z,4.50
2019-01-11T21:32:15.298Z,4.47
2019-01-11T21:34:46.541Z,5.70
2019-01-11T21:37:17.848Z,3.70
2019-01-11T21:39:49.067Z,4.10
2019-01-11T21:42:20.346Z,5.00
2019-01-11T21:44:51.580Z,4.30
2019-01-11T21:47:22.952Z,4.23
2019-01-11T21:49:54.181Z,4.77
2019-01-11T21:52:25.466Z,5.47
2019-01-11T21:54:56.700Z,4.50
2019-01-11T21:57:28.009Z,4.10
2019-01-11T21:59:59.246Z,3.83
2019-01-11T22:02:30.493Z,4.07
2019-01-11T22:05:01.833Z,4.23
2019-01-11T22:07:33.110Z,4.30
2019-01-11T22:10:05.342Z,3.23
2019-01-11T22:12:36.609Z,4.33
2019-01-11T22:15:10.046Z,4.57
2019-01-11T22:17:41.295Z,3.90
2019-01-11T22:20:15.222Z,3.93
2019-01-11T22:22:46.676Z,3.80
2019-01-11T22:25:38.545Z,4.07
2019-01-11T22:28:09.860Z,3.80
2019-01-11T22:30:41.085Z,3.63
2019-01-11T22:33:12.332Z,4.50
2019-01-11T22:35:43.570Z,4.30
2019-01-11T22:38:14.819Z,3.40
2019-01-11T22:40:46.100Z,3.50
2019-01-11T22:43:17.321Z,3.50
2019-01-11T22:45:48.601Z,3.80
2019-01-11T22:48:19.765Z,4.30
2019-01-11T22:50:51.055Z,4.20
2019-01-11T22:53:22.238Z,3.93
2019-01-11T22:55:53.479Z,3.50
2019-01-11T22:58:24.771Z,5.80
2019-01-11T23:01:18.668Z,3.47
2019-01-11T23:03:55.689Z,3.30
2019-01-11T23:07:05.420Z,3.27
2019-01-11T23:09:53.840Z,3.90
2019-01-11T23:12:45.505Z,3.40
2019-01-11T23:15:23.351Z,4.50
2019-01-11T23:18:00.291Z,4.30
2019-01-11T23:20:31.560Z,4.90
2019-01-11T23:23:02.664Z,4.33
2019-01-11T23:25:33.939Z,4.53
2019-01-11T23:28:05.138Z,4.73
2019-01-11T23:30:36.428Z,4.30
2019-01-11T23:33:07.657Z,4.80
2019-01-11T23:35:58.844Z,4.27
2019-01-11T23:38:30.136Z,5.60
2019-01-11T23:41:01.384Z,6.87
2019-01-11T23:43:42.735Z,6.10
2019-01-11T23:46:21.049Z,6.60
2019-01-11T23:48:52.424Z,7.70
2019-01-11T23:51:23.729Z,7.27
2019-01-11T23:53:54.960Z,6.20
2019-01-11T23:56:30.030Z,7.57
2019-01-11T23:59:03.936Z,7.53
